Time;durP1;ratioP1;P1;durP2;ratioP2;P2;SDS_P1;SDS_P2;PMS_P1;PMS_P2;Temp;Humidity;BMP_temperature;BMP_pressure;BME280_temperature;BME280_humidity;BME280_pressure;Samples;Min_cycle;Max_cycle;Signal;HPM_P1;HPM_P2
2023/12/24 00:02:08;;;;;;;;;;;13.60;99.90;;;;;;5111496;28;19926;-71
2023/12/24 00:04:34;;;;;;;;;;;13.70;99.90;;;;;;5111693;28;19916;-72
2023/12/24 00:07:00;;;;;;;;;;;13.70;99.90;;;;;;5112028;28;19919;-72
2023/12/24 00:09:25;;;;;;;;;;;13.60;99.90;;;;;;5111602;28;19912;-72
2023/12/24 00:11:52;;;;;;;;;;;13.50;99.90;;;;;;5111457;28;19908;-72
2023/12/24 00:14:17;;;;;;;;;;;13.50;99.90;;;;;;5111416;28;20003;-72
2023/12/24 00:16:43;;;;;;;;;;;13.50;99.90;;;;;;5093063;28;19947;-67
2023/12/24 00:19:09;;;;;;;;;;;13.50;99.90;;;;;;5115057;28;19950;-67
2023/12/24 00:21:35;;;;;;;;;;;13.50;99.90;;;;;;5115349;28;19908;-68
2023/12/24 00:24:01;;;;;;;;;;;13.60;99.90;;;;;;5115386;28;19951;-68
2023/12/24 00:26:27;;;;;;;;;;;13.60;99.90;;;;;;5115568;28;19930;-67
2023/12/24 00:28:54;;;;;;;;;;;13.60;99.90;;;;;;5115424;28;20061;-68
2023/12/24 00:31:20;;;;;;;;;;;13.60;99.90;;;;;;5096837;28;20028;-67
2023/12/24 00:33:45;;;;;;;;;;;13.60;99.90;;;;;;5115648;28;20324;-67
2023/12/24 00:36:11;;;;;;;;;;;13.50;99.90;;;;;;5115402;28;19965;-67
2023/12/24 00:38:37;;;;;;;;;;;13.50;99.90;;;;;;5115586;28;19907;-67
2023/12/24 00:41:03;;;;;;;;;;;13.50;99.90;;;;;;5115065;28;19912;-71
2023/12/24 00:43:29;;;;;;;;;;;13.50;99.90;;;;;;5114867;28;20348;-72
2023/12/24 00:45:54;;;;;;;;;;;13.50;99.90;;;;;;5114952;28;20202;-71
2023/12/24 00:48:20;;;;;;;;;;;13.50;99.90;;;;;;5114691;28;19947;-70
2023/12/24 00:50:46;;;;;;;;;;;13.50;99.90;;;;;;5115162;28;20413;-70
2023/12/24 00:53:12;;;;;;;;;;;13.50;99.90;;;;;;5114902;28;19987;-70
2023/12/24 00:55:39;;;;;;;;;;;13.50;99.90;;;;;;5114823;28;19908;-70
2023/12/24 00:58:05;;;;;;;;;;;13.60;99.90;;;;;;5115149;28;19908;-70
2023/12/24 01:00:31;;;;;;;;;;;13.50;99.90;;;;;;5114603;28;19927;-72
2023/12/24 01:02:57;;;;;;;;;;;13.60;99.90;;;;;;5114476;28;19915;-70
2023/12/24 01:05:23;;;;;;;;;;;13.60;99.90;;;;;;5114281;28;19959;-73
2023/12/24 01:07:49;;;;;;;;;;;13.50;99.90;;;;;;5114352;28;19980;-73
2023/12/24 01:10:15;;;;;;;;;;;13.50;99.90;;;;;;5114903;28;19908;-74
2023/12/24 01:12:42;;;;;;;;;;;13.50;99.90;;;;;;5114446;28;19907;-73
2023/12/24 01:15:08;;;;;;;;;;;13.60;99.90;;;;;;5114537;28;19908;-74
2023/12/24 01:17:34;;;;;;;;;;;13.50;99.90;;;;;;5114220;28;19950;-72
2023/12/24 01:20:00;;;;;;;;;;;13.50;99.90;;;;;;5114233;28;19908;-73
2023/12/24 01:22:27;;;;;;;;;;;13.50;99.90;;;;;;5114108;28;19907;-73
2023/12/24 01:24:53;;;;;;;;;;;13.50;99.90;;;;;;5114174;28;19919;-73
2023/12/24 01:27:19;;;;;;;;;;;13.40;99.90;;;;;;5113918;28;19992;-71
2023/12/24 01:29:44;;;;;;;;;;;13.50;99.90;;;;;;5112889;28;20011;-72
2023/12/24 01:32:10;;;;;;;;;;;13.50;99.90;;;;;;5114095;28;20003;-72
2023/12/24 01:34:36;;;;;;;;;;;13.50;99.90;;;;;;5113820;28;19912;-72
2023/12/24 01:37:02;;;;;;;;;;;13.40;99.90;;;;;;5113953;28;19926;-73
2023/12/24 01:39:28;;;;;;;;;;;13.40;99.90;;;;;;5107484;28;20056;-73
2023/12/24 01:41:53;;;;;;;;;;;13.40;99.90;;;;;;5104359;28;19956;-68
2023/12/24 01:44:19;;;;;;;;;;;13.50;99.90;;;;;;5095220;28;19931;-70
2023/12/24 01:46:45;;;;;;;;;;;13.50;99.90;;;;;;5113582;28;20386;-71
2023/12/24 01:49:12;;;;;;;;;;;13.50;99.90;;;;;;5113736;28;19916;-73
2023/12/24 01:51:38;;;;;;;;;;;13.50;99.90;;;;;;5107304;28;19919;-73
2023/12/24 01:54:03;;;;;;;;;;;13.60;99.90;;;;;;5093159;28;20002;-68
2023/12/24 01:56:30;;;;;;;;;;;13.60;99.90;;;;;;5092993;28;20011;-71
2023/12/24 01:58:57;;;;;;;;;;;13.60;99.90;;;;;;5093468;28;20018;-71
2023/12/24 02:01:23;;;;;;;;;;;13.60;99.90;;;;;;5092588;28;19927;-71
2023/12/24 02:03:49;;;;;;;;;;;13.60;99.90;;;;;;5094834;28;19912;-72
2023/12/24 02:06:14;;;;;;;;;;;13.60;99.90;;;;;;5093180;28;19908;-68
2023/12/24 02:08:40;;;;;;;;;;;13.50;99.90;;;;;;5092802;28;19928;-73
2023/12/24 02:11:07;;;;;;;;;;;13.60;99.90;;;;;;5109821;28;20011;-69
2023/12/24 02:13:33;;;;;;;;;;;13.60;99.90;;;;;;5110396;28;19994;-69
2023/12/24 02:16:16;;;;;;;;;;;13.60;99.90;;;;;;5113178;28;19907;-73
2023/12/24 02:18:41;;;;;;;;;;;13.60;99.90;;;;;;5112811;28;19915;-71
2023/12/24 02:21:07;;;;;;;;;;;13.50;99.90;;;;;;5094588;28;19908;-74
2023/12/24 02:23:33;;;;;;;;;;;13.50;99.90;;;;;;5101971;28;19958;-72
2023/12/24 02:26:19;;;;;;;;;;;13.50;99.90;;;;;;5092833;28;19908;-73
2023/12/24 02:28:48;;;;;;;;;;;13.50;99.90;;;;;;5067968;28;19916;-73
2023/12/24 02:31:15;;;;;;;;;;;13.50;99.90;;;;;;5092541;28;20419;-73
2023/12/24 02:33:42;;;;;;;;;;;13.60;99.90;;;;;;5094285;27;19912;-72
2023/12/24 02:36:20;;;;;;;;;;;13.60;99.90;;;;;;5091963;28;20022;-74
2023/12/24 02:38:45;;;;;;;;;;;13.50;99.90;;;;;;5085155;28;19908;-73
2023/12/24 02:41:12;;;;;;;;;;;13.50;99.90;;;;;;5091961;28;20385;-74
2023/12/24 02:43:38;;;;;;;;;;;13.40;99.90;;;;;;5099193;27;19912;-73
2023/12/24 02:46:04;;;;;;;;;;;13.40;99.90;;;;;;5092058;28;20344;-73
2023/12/24 02:48:30;;;;;;;;;;;13.40;99.90;;;;;;5091705;28;20283;-73
2023/12/24 02:50:55;;;;;;;;;;;13.30;99.90;;;;;;5092095;28;19908;-73
2023/12/24 02:53:21;;;;;;;;;;;13.30;99.90;;;;;;5109653;28;20369;-73
2023/12/24 02:55:47;;;;;;;;;;;13.40;99.90;;;;;;5111823;28;19907;-73
2023/12/24 02:58:13;;;;;;;;;;;13.30;99.90;;;;;;5112071;28;19911;-73
2023/12/24 03:00:39;;;;;;;;;;;13.30;99.90;;;;;;5112013;28;19920;-74
2023/12/24 03:03:05;;;;;;;;;;;13.40;99.90;;;;;;5112365;28;19908;-73
2023/12/24 03:05:30;;;;;;;;;;;13.50;99.90;;;;;;5112482;28;20266;-73
2023/12/24 03:07:56;;;;;;;;;;;13.30;99.90;;;;;;5112052;28;19974;-73
2023/12/24 03:10:22;;;;;;;;;;;13.30;99.90;;;;;;5112399;28;20262;-73
2023/12/24 03:12:48;;;;;;;;;;;13.40;99.90;;;;;;5112009;28;19922;-73
2023/12/24 03:15:14;;;;;;;;;;;13.30;99.90;;;;;;5112068;28;19919;-74
2023/12/24 03:17:39;;;;;;;;;;;13.40;99.90;;;;;;5112076;28;20003;-74
2023/12/24 03:20:07;;;;;;;;;;;13.40;99.90;;;;;;5112023;28;19907;-74
2023/12/24 03:22:32;;;;;;;;;;;13.50;99.90;;;;;;5112295;28;19943;-74
2023/12/24 03:24:59;;;;;;;;;;;13.50;99.90;;;;;;5112012;28;19990;-73
2023/12/24 03:27:25;;;;;;;;;;;13.60;99.90;;;;;;5111789;28;19923;-74
2023/12/24 03:29:52;;;;;;;;;;;13.60;99.90;;;;;;5111835;28;19911;-75
2023/12/24 03:32:18;;;;;;;;;;;13.40;99.90;;;;;;5112184;28;19911;-75
2023/12/24 03:34:44;;;;;;;;;;;13.30;99.90;;;;;;5112141;28;19965;-72
2023/12/24 03:37:10;;;;;;;;;;;13.10;99.90;;;;;;5111974;28;19955;-72
2023/12/24 03:39:45;;;;;;;;;;;13.10;99.90;;;;;;5111918;28;19972;-72
2023/12/24 03:42:11;;;;;;;;;;;13.10;99.90;;;;;;5112017;28;20343;-72
2023/12/24 03:44:37;;;;;;;;;;;13.10;99.90;;;;;;5111817;28;19912;-73
2023/12/24 03:47:02;;;;;;;;;;;13.10;99.90;;;;;;5111863;28;19915;-73
2023/12/24 03:49:28;;;;;;;;;;;13.10;99.90;;;;;;5111569;28;19916;-75
2023/12/24 03:51:54;;;;;;;;;;;13.10;99.90;;;;;;5111802;28;19998;-75
2023/12/24 03:54:21;;;;;;;;;;;13.10;99.90;;;;;;5115841;28;19907;-73
2023/12/24 03:56:47;;;;;;;;;;;13.10;99.90;;;;;;5097558;28;19908;-74
2023/12/24 03:59:16;;;;;;;;;;;13.10;99.90;;;;;;5115912;28;20064;-74
2023/12/24 04:01:42;;;;;;;;;;;13.20;99.90;;;;;;5113548;28;19967;-73
2023/12/24 04:04:08;;;;;;;;;;;13.20;99.90;;;;;;5097324;28;19911;-74
2023/12/24 04:06:34;;;;;;;;;;;13.10;99.90;;;;;;5097346;28;20240;-74
2023/12/24 04:09:00;;;;;;;;;;;13.10;99.90;;;;;;5115727;28;19916;-74
2023/12/24 04:11:27;;;;;;;;;;;13.10;99.90;;;;;;5115879;28;19908;-74
2023/12/24 04:13:56;;;;;;;;;;;13.10;99.90;;;;;;5097172;28;19931;-75
2023/12/24 04:16:21;;;;;;;;;;;13.20;99.90;;;;;;5115521;28;20424;-72
2023/12/24 04:18:47;;;;;;;;;;;13.10;99.90;;;;;;5115295;28;20036;-75
2023/12/24 04:21:13;;;;;;;;;;;13.20;99.90;;;;;;5115420;28;19908;-72
2023/12/24 04:23:39;;;;;;;;;;;13.20;99.90;;;;;;5115533;28;19934;-72
2023/12/24 04:26:04;;;;;;;;;;;13.20;99.90;;;;;;5115204;28;19966;-72
2023/12/24 04:28:31;;;;;;;;;;;13.20;99.90;;;;;;5097087;28;19916;-71
2023/12/24 04:30:57;;;;;;;;;;;13.20;99.90;;;;;;5115340;28;19908;-73
2023/12/24 04:33:23;;;;;;;;;;;13.20;99.90;;;;;;5115291;28;19919;-74
2023/12/24 04:35:49;;;;;;;;;;;13.20;99.90;;;;;;5115152;28;20291;-73
2023/12/24 04:38:14;;;;;;;;;;;13.20;99.90;;;;;;5115141;28;19907;-72
2023/12/24 04:40:40;;;;;;;;;;;13.10;99.90;;;;;;5115222;28;19916;-73
2023/12/24 04:43:07;;;;;;;;;;;13.10;99.90;;;;;;5115427;28;19908;-73
2023/12/24 04:45:32;;;;;;;;;;;13.10;99.90;;;;;;5115002;28;20337;-71
2023/12/24 04:47:59;;;;;;;;;;;13.20;99.90;;;;;;5115105;28;19912;-73
2023/12/24 04:50:25;;;;;;;;;;;13.10;99.90;;;;;;5115045;28;20275;-72
2023/12/24 04:52:52;;;;;;;;;;;13.10;99.90;;;;;;5115873;28;19919;-73
2023/12/24 04:55:19;;;;;;;;;;;13.10;99.90;;;;;;5115505;28;20312;-72
2023/12/24 04:57:45;;;;;;;;;;;13.10;99.90;;;;;;5115638;28;19907;-72
2023/12/24 05:00:11;;;;;;;;;;;13.10;99.90;;;;;;5114980;28;19907;-74
2023/12/24 05:02:37;;;;;;;;;;;13.10;99.90;;;;;;5115199;28;19907;-75
2023/12/24 05:05:03;;;;;;;;;;;13.10;99.90;;;;;;5115035;28;19907;-75
2023/12/24 05:07:29;;;;;;;;;;;13.10;99.90;;;;;;5115112;28;20257;-75
2023/12/24 05:09:55;;;;;;;;;;;13.10;99.90;;;;;;5115469;28;20262;-75
2023/12/24 05:12:21;;;;;;;;;;;13.10;99.90;;;;;;5115090;28;19912;-73
2023/12/24 05:14:47;;;;;;;;;;;13.10;99.90;;;;;;5115012;28;19908;-73
2023/12/24 05:17:12;;;;;;;;;;;13.10;99.90;;;;;;5114686;28;19908;-74
2023/12/24 05:19:38;;;;;;;;;;;13.10;99.90;;;;;;5114973;28;20014;-74
2023/12/24 05:22:04;;;;;;;;;;;13.10;99.90;;;;;;5114671;28;19919;-74
2023/12/24 05:24:30;;;;;;;;;;;13.10;99.90;;;;;;5096565;28;19972;-74
2023/12/24 05:26:56;;;;;;;;;;;13.10;99.90;;;;;;5114610;28;19968;-74
2023/12/24 05:29:21;;;;;;;;;;;13.10;99.90;;;;;;5114842;28;20237;-76
2023/12/24 05:31:48;;;;;;;;;;;13.10;99.90;;;;;;5114562;28;20000;-74
2023/12/24 05:34:14;;;;;;;;;;;13.10;99.90;;;;;;5114714;28;19918;-73
2023/12/24 05:36:40;;;;;;;;;;;13.10;99.90;;;;;;5114342;28;19908;-73
2023/12/24 05:39:06;;;;;;;;;;;13.00;99.90;;;;;;5114754;28;19908;-74
2023/12/24 05:41:38;;;;;;;;;;;13.10;99.90;;;;;;5114733;28;19915;-72
2023/12/24 05:44:04;;;;;;;;;;;13.10;99.90;;;;;;5114366;28;19912;-72
2023/12/24 05:46:30;;;;;;;;;;;13.10;99.90;;;;;;5114251;28;19908;-73
2023/12/24 05:48:56;;;;;;;;;;;13.20;99.90;;;;;;5113864;28;19961;-73
2023/12/24 05:51:22;;;;;;;;;;;13.30;99.90;;;;;;5114466;28;19915;-74
2023/12/24 05:53:47;;;;;;;;;;;13.30;99.90;;;;;;5114632;28;19908;-74
2023/12/24 05:56:13;;;;;;;;;;;13.20;99.90;;;;;;5114328;28;19908;-74
2023/12/24 05:58:39;;;;;;;;;;;13.30;99.90;;;;;;5114367;28;19919;-74
2023/12/24 06:01:05;;;;;;;;;;;13.30;99.90;;;;;;5113692;28;19924;-70
2023/12/24 06:03:31;;;;;;;;;;;13.30;99.90;;;;;;5113900;28;19908;-77
2023/12/24 06:05:57;;;;;;;;;;;13.30;99.90;;;;;;5114200;28;19998;-74
2023/12/24 06:08:23;;;;;;;;;;;13.30;99.90;;;;;;5113785;28;19938;-76
2023/12/24 06:10:49;;;;;;;;;;;13.30;99.90;;;;;;5114151;28;20226;-75
2023/12/24 06:13:15;;;;;;;;;;;13.30;99.90;;;;;;5113878;28;19918;-75
2023/12/24 06:15:41;;;;;;;;;;;13.20;99.90;;;;;;5113293;28;20329;-75
2023/12/24 06:18:07;;;;;;;;;;;13.20;99.90;;;;;;5095253;28;19920;-75
2023/12/24 06:20:34;;;;;;;;;;;13.20;99.90;;;;;;5113716;28;19915;-75
2023/12/24 06:23:00;;;;;;;;;;;13.20;99.90;;;;;;5113893;28;19908;-76
2023/12/24 06:25:26;;;;;;;;;;;13.20;99.90;;;;;;5113554;28;19915;-75
2023/12/24 06:27:52;;;;;;;;;;;13.20;99.90;;;;;;5113632;28;19928;-75
2023/12/24 06:30:18;;;;;;;;;;;13.10;99.90;;;;;;5095053;28;19961;-75
2023/12/24 06:32:45;;;;;;;;;;;13.20;99.90;;;;;;5113567;28;20379;-74
2023/12/24 06:35:11;;;;;;;;;;;13.20;99.90;;;;;;5114071;28;20030;-75
2023/12/24 06:37:36;;;;;;;;;;;13.20;99.90;;;;;;5113398;28;19908;-74
2023/12/24 06:40:03;;;;;;;;;;;13.30;99.90;;;;;;5113580;28;19908;-74
2023/12/24 06:42:29;;;;;;;;;;;13.40;99.90;;;;;;5113194;28;19959;-74
2023/12/24 06:44:55;;;;;;;;;;;13.50;99.90;;;;;;5113153;28;19997;-74
2023/12/24 06:47:21;;;;;;;;;;;13.70;99.90;;;;;;5112833;28;19911;-74
2023/12/24 06:49:47;;;;;;;;;;;14.00;99.90;;;;;;5113079;28;20318;-74
2023/12/24 06:52:12;;;;;;;;;;;14.20;99.90;;;;;;5112500;28;19966;-73
2023/12/24 06:54:38;;;;;;;;;;;14.40;99.90;;;;;;5113176;28;19908;-75
2023/12/24 06:57:06;;;;;;;;;;;14.80;99.90;;;;;;5112820;28;19955;-74
2023/12/24 06:59:32;;;;;;;;;;;15.00;99.90;;;;;;5112955;28;19934;-68
2023/12/24 07:01:58;;;;;;;;;;;15.30;99.90;;;;;;5112460;28;19919;-68
2023/12/24 07:04:23;;;;;;;;;;;15.70;99.90;;;;;;5108895;28;19951;-72
2023/12/24 07:06:49;;;;;;;;;;;16.00;99.90;;;;;;5111633;28;19930;-73
2023/12/24 07:09:15;;;;;;;;;;;16.20;99.90;;;;;;5111435;28;19920;-74
2023/12/24 07:11:41;;;;;;;;;;;16.30;99.90;;;;;;5110865;28;20335;-70
2023/12/24 07:14:32;;;;;;;;;;;16.50;99.90;;;;;;5108483;28;20019;-68
2023/12/24 07:16:58;;;;;;;;;;;16.80;99.90;;;;;;5104372;28;19912;-73
2023/12/24 07:19:24;;;;;;;;;;;16.70;99.90;;;;;;5111516;28;19908;-75
2023/12/24 07:21:50;;;;;;;;;;;16.70;99.90;;;;;;5110614;28;19927;-71
2023/12/24 07:24:15;;;;;;;;;;;16.70;99.90;;;;;;5111281;28;20348;-76
2023/12/24 07:26:41;;;;;;;;;;;16.20;99.90;;;;;;5105358;28;19911;-75
2023/12/24 07:29:07;;;;;;;;;;;15.70;99.90;;;;;;5112500;28;19968;-70
2023/12/24 07:31:33;;;;;;;;;;;15.80;99.90;;;;;;5112111;28;19915;-73
2023/12/24 07:33:59;;;;;;;;;;;15.80;99.90;;;;;;5116320;27;20386;-76
2023/12/24 07:36:24;;;;;;;;;;;16.20;99.90;;;;;;5114879;28;19916;-71
2023/12/24 07:38:50;;;;;;;;;;;16.60;99.90;;;;;;5093223;28;20360;-71
2023/12/24 07:41:17;;;;;;;;;;;17.10;99.90;;;;;;5101397;28;19999;-70
2023/12/24 07:43:55;;;;;;;;;;;17.10;99.90;;;;;;5112457;28;19912;-71
2023/12/24 07:46:56;;;;;;;;;;;17.30;99.90;;;;;;5097397;28;20394;-71
2023/12/24 07:49:43;;;;;;;;;;;17.20;99.90;;;;;;5112006;28;20065;-72
2023/12/24 07:52:45;;;;;;;;;;;17.20;99.90;;;;;;5112067;28;19908;-71
2023/12/24 07:55:27;;;;;;;;;;;17.00;99.90;;;;;;5107780;28;19995;-71
2023/12/24 07:58:16;;;;;;;;;;;16.60;99.90;;;;;;5094307;28;19908;-71
2023/12/24 08:01:16;;;;;;;;;;;16.40;99.90;;;;;;5089265;28;19952;-71
2023/12/24 08:03:43;;;;;;;;;;;16.10;99.90;;;;;;5013254;28;19913;-72
2023/12/24 08:06:12;;;;;;;;;;;16.10;99.90;;;;;;5029687;28;19909;-70
2023/12/24 08:08:38;;;;;;;;;;;15.80;99.90;;;;;;5029645;28;20015;-72
2023/12/24 08:11:04;;;;;;;;;;;15.90;99.90;;;;;;5029947;28;19996;-74
2023/12/24 08:13:31;;;;;;;;;;;16.00;99.90;;;;;;5029729;28;19941;-76
2023/12/24 08:15:57;;;;;;;;;;;16.20;99.90;;;;;;5029446;28;19948;-74
2023/12/24 08:18:23;;;;;;;;;;;16.30;99.90;;;;;;5029437;28;19968;-70
2023/12/24 08:20:55;;;;;;;;;;;16.40;99.90;;;;;;5028828;28;19916;-70
2023/12/24 08:23:35;;;;;;;;;;;16.30;99.90;;;;;;5012886;28;19909;-70
2023/12/24 08:26:01;;;;;;;;;;;16.40;99.90;;;;;;5029230;28;19917;-72
2023/12/24 08:28:27;;;;;;;;;;;16.60;99.90;;;;;;5029307;28;19921;-73
2023/12/24 08:30:53;;;;;;;;;;;16.70;99.90;;;;;;5028915;28;19910;-75
2023/12/24 08:33:20;;;;;;;;;;;16.70;99.90;;;;;;5028390;28;19922;-72
2023/12/24 08:35:45;;;;;;;;;;;16.90;99.90;;;;;;5029627;28;19909;-77
2023/12/24 08:38:12;;;;;;;;;;;17.10;99.90;;;;;;5028689;28;19920;-75
2023/12/24 08:40:38;;;;;;;;;;;17.20;99.90;;;;;;5083229;28;19955;-76
2023/12/24 08:43:04;;;;;;;;;;;17.30;99.90;;;;;;5111682;28;19915;-75
2023/12/24 08:45:30;;;;;;;;;;;17.30;99.90;;;;;;5111168;28;19916;-76
2023/12/24 08:47:57;;;;;;;;;;;17.50;99.90;;;;;;5107193;28;20016;-74
2023/12/24 08:50:23;;;;;;;;;;;17.60;99.90;;;;;;5115338;28;19907;-76
2023/12/24 08:52:49;;;;;;;;;;;18.00;99.90;;;;;;5097174;28;19958;-70
2023/12/24 08:55:18;;;;;;;;;;;18.10;99.90;;;;;;5115307;28;19911;-69
2023/12/24 08:57:44;;;;;;;;;;;18.10;99.90;;;;;;5115438;28;19915;-70
2023/12/24 09:00:12;;;;;;;;;;;18.10;99.90;;;;;;5114980;28;19912;-69
2023/12/24 09:02:39;;;;;;;;;;;18.20;99.90;;;;;;5115012;28;19938;-69
2023/12/24 09:05:07;;;;;;;;;;;18.50;99.90;;;;;;5114434;28;20264;-68
2023/12/24 09:07:34;;;;;;;;;;;18.60;99.90;;;;;;5117585;27;19983;-69
2023/12/24 09:10:01;;;;;;;;;;;18.70;99.90;;;;;;5114624;28;19922;-69
2023/12/24 09:12:27;;;;;;;;;;;18.90;99.90;;;;;;5114924;28;19908;-71
2023/12/24 09:14:53;;;;;;;;;;;19.00;99.90;;;;;;5115091;28;20057;-72
2023/12/24 09:17:19;;;;;;;;;;;19.10;99.90;;;;;;5114579;28;19958;-71
2023/12/24 09:19:45;;;;;;;;;;;19.00;99.90;;;;;;5114972;28;19923;-70
2023/12/24 09:22:11;;;;;;;;;;;18.90;99.90;;;;;;5115056;28;20330;-71
2023/12/24 09:24:37;;;;;;;;;;;18.80;99.90;;;;;;5115163;28;19915;-70
2023/12/24 09:27:02;;;;;;;;;;;18.70;99.90;;;;;;5112711;28;19912;-73
2023/12/24 09:29:28;;;;;;;;;;;18.60;99.90;;;;;;5114382;28;20010;-72
2023/12/24 09:31:54;;;;;;;;;;;18.60;99.90;;;;;;5109268;28;20031;-69
2023/12/24 09:34:20;;;;;;;;;;;18.60;99.90;;;;;;5113033;28;19918;-69
2023/12/24 09:36:46;;;;;;;;;;;18.80;99.90;;;;;;5107952;28;19912;-73
2023/12/24 09:39:12;;;;;;;;;;;19.00;99.90;;;;;;5114148;28;19908;-69
2023/12/24 09:41:38;;;;;;;;;;;19.00;99.90;;;;;;5114319;28;19908;-73
2023/12/24 09:44:05;;;;;;;;;;;19.00;99.90;;;;;;5114460;28;19998;-72
2023/12/24 09:46:31;;;;;;;;;;;19.00;99.90;;;;;;5114065;28;20006;-68
2023/12/24 09:48:57;;;;;;;;;;;19.10;99.90;;;;;;5112428;28;20007;-75
2023/12/24 09:51:54;;;;;;;;;;;19.10;99.90;;;;;;5111968;28;19955;-69
2023/12/24 09:54:20;;;;;;;;;;;19.20;99.90;;;;;;5111352;28;19975;-75
2023/12/24 09:56:46;;;;;;;;;;;19.20;99.90;;;;;;5113651;28;19952;-73
2023/12/24 09:59:11;;;;;;;;;;;19.00;99.90;;;;;;5113726;28;20378;-73
2023/12/24 10:01:42;;;;;;;;;;;18.90;99.90;;;;;;5112618;28;19939;-75
2023/12/24 10:04:07;;;;;;;;;;;19.00;99.90;;;;;;5092851;28;19953;-70
2023/12/24 10:06:33;;;;;;;;;;;19.00;99.90;;;;;;5113417;28;19912;-72
2023/12/24 10:08:59;;;;;;;;;;;18.90;99.90;;;;;;5113130;28;19980;-73
2023/12/24 10:11:25;;;;;;;;;;;19.10;99.90;;;;;;5113226;28;19915;-76
2023/12/24 10:14:00;;;;;;;;;;;19.10;99.90;;;;;;5113194;28;20363;-74
2023/12/24 10:16:27;;;;;;;;;;;19.20;99.90;;;;;;5103212;28;19938;-74
2023/12/24 10:18:58;;;;;;;;;;;19.30;99.90;;;;;;5094420;28;19923;-73
2023/12/24 10:21:24;;;;;;;;;;;19.30;99.90;;;;;;5113125;28;19945;-75
2023/12/24 10:23:50;;;;;;;;;;;19.20;99.90;;;;;;5112856;28;19912;-75
2023/12/24 10:26:20;;;;;;;;;;;19.20;99.90;;;;;;5112853;28;20219;-72
2023/12/24 10:28:48;;;;;;;;;;;19.30;99.90;;;;;;5112921;28;20002;-73
2023/12/24 10:31:14;;;;;;;;;;;19.30;99.90;;;;;;5086362;28;20341;-71
2023/12/24 10:33:40;;;;;;;;;;;19.00;99.90;;;;;;5089243;28;19995;-70
2023/12/24 10:36:07;;;;;;;;;;;19.00;99.90;;;;;;5112264;28;19938;-68
2023/12/24 10:38:34;;;;;;;;;;;18.60;99.90;;;;;;5112107;28;20006;-69
2023/12/24 10:41:00;;;;;;;;;;;18.80;99.90;;;;;;5107618;28;19920;-73
2023/12/24 10:43:26;;;;;;;;;;;18.70;99.90;;;;;;5107335;28;19992;-73
2023/12/24 10:45:52;;;;;;;;;;;18.80;99.90;;;;;;5104379;28;19958;-72
2023/12/24 10:48:19;;;;;;;;;;;18.80;99.90;;;;;;5112346;28;19928;-72
2023/12/24 10:50:45;;;;;;;;;;;18.80;99.90;;;;;;5075877;28;20011;-74
2023/12/24 10:53:11;;;;;;;;;;;18.70;99.90;;;;;;5101940;27;19912;-72
2023/12/24 10:55:39;;;;;;;;;;;18.80;99.90;;;;;;5107387;28;19919;-72
2023/12/24 10:58:05;;;;;;;;;;;18.90;99.90;;;;;;5111775;28;20597;-72
2023/12/24 11:00:31;;;;;;;;;;;19.00;99.90;;;;;;5093793;28;19984;-72
2023/12/24 11:02:57;;;;;;;;;;;19.20;99.90;;;;;;5111914;28;20287;-73
2023/12/24 11:05:46;;;;;;;;;;;19.10;99.90;;;;;;5112277;28;20007;-73
2023/12/24 11:08:21;;;;;;;;;;;19.10;99.90;;;;;;5109681;28;20010;-73
2023/12/24 11:10:53;;;;;;;;;;;19.20;99.90;;;;;;5112064;28;19912;-74
2023/12/24 11:13:31;;;;;;;;;;;19.10;99.90;;;;;;5093357;28;19912;-75
2023/12/24 11:16:01;;;;;;;;;;;19.20;99.90;;;;;;5093529;28;19916;-73
2023/12/24 11:18:39;;;;;;;;;;;19.10;99.90;;;;;;5111838;28;20360;-75
2023/12/24 11:21:05;;;;;;;;;;;19.20;99.90;;;;;;5109786;28;19926;-75
2023/12/24 11:23:30;;;;;;;;;;;19.40;99.90;;;;;;5112101;28;19998;-76
2023/12/24 11:26:22;;;;;;;;;;;19.50;99.90;;;;;;5111755;28;20381;-74
2023/12/24 11:28:48;;;;;;;;;;;19.70;99.90;;;;;;5106252;28;19951;-73
2023/12/24 11:31:22;;;;;;;;;;;19.50;99.90;;;;;;5111730;28;19939;-74
2023/12/24 11:33:48;;;;;;;;;;;19.70;99.90;;;;;;5109096;28;19961;-74
2023/12/24 11:36:14;;;;;;;;;;;19.80;99.90;;;;;;5111721;28;19911;-73
2023/12/24 11:38:41;;;;;;;;;;;19.70;99.90;;;;;;5111666;28;19935;-72
2023/12/24 11:41:11;;;;;;;;;;;19.50;99.90;;;;;;5108850;28;19972;-75
2023/12/24 11:43:38;;;;;;;;;;;19.10;99.90;;;;;;5111699;28;20002;-75
2023/12/24 11:46:04;;;;;;;;;;;19.10;99.90;;;;;;5111548;28;20006;-76
2023/12/24 11:48:32;;;;;;;;;;;19.10;99.90;;;;;;5111320;28;19938;-74
2023/12/24 11:51:02;;;;;;;;;;;19.30;99.90;;;;;;5111898;28;19911;-69
2023/12/24 11:54:18;;;;;;;;;;;19.30;99.90;;;;;;5112618;28;19908;-69
2023/12/24 11:56:46;;;;;;;;;;;19.00;99.90;;;;;;5027622;28;19995;-71
2023/12/24 11:59:12;;;;;;;;;;;19.10;99.90;;;;;;5026942;28;19909;-73
2023/12/24 12:01:38;;;;;;;;;;;19.30;99.90;;;;;;5028406;28;19921;-75
2023/12/24 12:04:04;;;;;;;;;;;19.20;99.90;;;;;;5028884;28;19909;-75
2023/12/24 12:06:31;;;;;;;;;;;19.40;99.90;;;;;;5029095;28;19910;-74
2023/12/24 12:09:09;;;;;;;;;;;19.20;99.90;;;;;;5029075;28;20019;-74
2023/12/24 12:11:36;;;;;;;;;;;19.20;99.90;;;;;;5012747;28;20362;-74
2023/12/24 12:14:01;;;;;;;;;;;19.20;99.90;;;;;;5030862;28;19912;-75
2023/12/24 12:16:28;;;;;;;;;;;19.20;99.90;;;;;;5030329;28;19972;-74
2023/12/24 12:18:55;;;;;;;;;;;19.40;99.90;;;;;;5013536;28;19913;-72
2023/12/24 12:21:20;;;;;;;;;;;19.40;99.90;;;;;;5032058;28;20488;-74
2023/12/24 12:23:47;;;;;;;;;;;19.40;99.90;;;;;;5032654;28;19910;-69
2023/12/24 12:26:13;;;;;;;;;;;19.30;99.90;;;;;;5032848;28;19916;-73
2023/12/24 12:28:39;;;;;;;;;;;19.20;99.90;;;;;;5031896;28;19932;-74
2023/12/24 12:31:05;;;;;;;;;;;19.20;99.90;;;;;;5080352;28;19915;-69
2023/12/24 12:33:31;;;;;;;;;;;19.40;99.90;;;;;;5093058;28;19931;-70
2023/12/24 12:35:57;;;;;;;;;;;19.50;99.90;;;;;;5109492;28;20252;-73
2023/12/24 12:38:23;;;;;;;;;;;19.50;99.90;;;;;;5096813;28;19915;-74
2023/12/24 12:40:50;;;;;;;;;;;19.40;99.90;;;;;;5115618;28;19981;-74
2023/12/24 12:43:20;;;;;;;;;;;19.20;99.90;;;;;;5114640;28;19919;-71
2023/12/24 12:45:46;;;;;;;;;;;19.30;99.90;;;;;;5108873;28;19938;-73
2023/12/24 12:48:12;;;;;;;;;;;19.40;99.90;;;;;;5108839;28;20435;-73
2023/12/24 12:50:37;;;;;;;;;;;19.40;99.90;;;;;;5115586;28;19946;-71
2023/12/24 12:53:05;;;;;;;;;;;19.40;99.90;;;;;;5115570;28;19976;-72
2023/12/24 12:55:31;;;;;;;;;;;19.60;99.90;;;;;;5115706;28;19908;-67
2023/12/24 12:57:57;;;;;;;;;;;19.70;99.90;;;;;;5115044;28;19908;-73
2023/12/24 13:00:23;;;;;;;;;;;19.50;99.90;;;;;;5109907;28;20374;-71
2023/12/24 13:02:50;;;;;;;;;;;19.50;99.90;;;;;;5110030;28;19942;-75
2023/12/24 13:05:22;;;;;;;;;;;19.40;99.90;;;;;;5115173;28;20006;-72
2023/12/24 13:07:48;;;;;;;;;;;19.40;99.90;;;;;;5114891;28;19983;-72
2023/12/24 13:10:24;;;;;;;;;;;19.40;99.90;;;;;;5113411;28;20344;-68
2023/12/24 13:13:04;;;;;;;;;;;19.30;99.90;;;;;;5105649;28;19912;-72
2023/12/24 13:15:33;;;;;;;;;;;19.10;99.90;;;;;;5112846;28;19984;-76
2023/12/24 13:18:18;;;;;;;;;;;19.10;99.90;;;;;;5112212;28;19915;-74
2023/12/24 13:20:49;;;;;;;;;;;18.60;99.90;;;;;;5114523;28;19934;-72
2023/12/24 13:23:17;;;;;;;;;;;18.50;99.90;;;;;;5112397;28;19911;-72
2023/12/24 13:25:43;;;;;;;;;;;18.40;99.90;;;;;;5113881;28;20003;-77
2023/12/24 13:28:09;;;;;;;;;;;18.50;99.90;;;;;;5096239;28;19959;-67
2023/12/24 13:30:35;;;;;;;;;;;18.60;99.90;;;;;;5096291;28;20430;-68
2023/12/24 13:33:02;;;;;;;;;;;18.70;99.90;;;;;;5114888;28;19988;-70
2023/12/24 13:35:27;;;;;;;;;;;18.70;99.90;;;;;;5130269;27;19908;-70
2023/12/24 13:37:53;;;;;;;;;;;18.60;99.90;;;;;;5094023;28;19915;-70
2023/12/24 13:40:26;;;;;;;;;;;18.60;99.90;;;;;;5105177;28;19928;-72
2023/12/24 13:43:22;;;;;;;;;;;18.60;99.90;;;;;;5098886;28;19908;-79
2023/12/24 13:45:48;;;;;;;;;;;18.70;99.90;;;;;;5094330;28;19955;-76
2023/12/24 13:48:17;;;;;;;;;;;18.90;99.90;;;;;;5113401;28;19959;-72
2023/12/24 13:53:27;;;;;;;;;;;18.60;99.90;;;;;;5072272;28;19932;-77
2023/12/24 13:55:53;;;;;;;;;;;18.50;99.90;;;;;;5073274;28;19989;-78
2023/12/24 13:58:21;;;;;;;;;;;18.70;99.90;;;;;;5073062;28;19912;-70
2023/12/24 14:00:48;;;;;;;;;;;18.80;99.90;;;;;;5073831;28;20404;-70
2023/12/24 14:03:14;;;;;;;;;;;18.90;99.90;;;;;;5073270;28;19935;-67
2023/12/24 14:05:40;;;;;;;;;;;18.80;99.90;;;;;;5074096;28;19909;-65
2023/12/24 14:08:07;;;;;;;;;;;18.50;99.90;;;;;;5073593;28;19978;-65
2023/12/24 14:10:32;;;;;;;;;;;18.50;99.90;;;;;;5074068;28;19912;-65
2023/12/24 14:12:58;;;;;;;;;;;18.60;99.90;;;;;;5055498;28;20241;-70
2023/12/24 14:15:24;;;;;;;;;;;18.60;99.90;;;;;;5072542;28;19921;-69
2023/12/24 14:17:50;;;;;;;;;;;18.40;99.90;;;;;;5073031;28;20018;-70
2023/12/24 14:20:16;;;;;;;;;;;18.50;99.90;;;;;;5058724;28;19978;-69
2023/12/24 14:22:44;;;;;;;;;;;18.60;99.90;;;;;;5071379;28;19934;-70